Time;durP1;ratioP1;P1;durP2;ratioP2;P2;SDS_P1;SDS_P2;PMS_P1;PMS_P2;Temp;Humidity;BMP_temperature;BMP_pressure;BME280_temperature;BME280_humidity;BME280_pressure;Samples;Min_cycle;Max_cycle;Signal;HPM_P1;HPM_P2
2023/04/29 00:01:25;;;;;;;1.90;1.35;;;20.10;99.90;;;;;;5114581;28;20030;-78
2023/04/29 00:03:51;;;;;;;3.33;1.30;;;20.10;99.90;;;;;;5114512;28;20106;-79
2023/04/29 00:06:17;;;;;;;3.20;1.10;;;20.00;99.90;;;;;;5114419;28;20020;-79
2023/04/29 00:08:43;;;;;;;2.10;1.23;;;20.10;99.90;;;;;;5114449;28;20035;-79
2023/04/29 00:11:10;;;;;;;1.70;1.20;;;20.00;99.90;;;;;;5113940;28;20023;-79
2023/04/29 00:13:36;;;;;;;2.13;1.25;;;20.00;99.90;;;;;;5114026;28;20067;-80
2023/04/29 00:16:04;;;;;;;1.30;1.15;;;20.00;99.90;;;;;;5113947;28;20047;-78
2023/04/29 00:18:31;;;;;;;1.50;1.25;;;19.90;99.90;;;;;;5113899;28;20030;-79
2023/04/29 00:20:56;;;;;;;2.10;1.23;;;20.00;99.90;;;;;;5114544;28;20034;-79
2023/04/29 00:23:22;;;;;;;1.25;1.10;;;19.90;99.90;;;;;;5114072;28;20015;-79
2023/04/29 00:25:49;;;;;;;2.55;1.40;;;19.90;99.90;;;;;;5113571;28;20062;-79
2023/04/29 00:28:14;;;;;;;1.20;1.10;;;19.80;99.90;;;;;;5113707;28;20063;-79
2023/04/29 00:30:40;;;;;;;1.52;1.10;;;19.80;99.90;;;;;;5113819;28;20092;-79
2023/04/29 00:33:06;;;;;;;2.90;1.20;;;19.80;99.90;;;;;;5113617;28;20535;-80
2023/04/29 00:35:31;;;;;;;1.55;1.17;;;19.80;99.90;;;;;;5114332;28;20035;-79
2023/04/29 00:37:57;;;;;;;1.70;1.20;;;19.80;99.90;;;;;;5113661;28;20098;-79
2023/04/29 00:40:23;;;;;;;3.20;1.20;;;19.70;99.90;;;;;;5113380;28;20446;-79
2023/04/29 00:42:48;;;;;;;1.50;1.10;;;19.70;99.90;;;;;;5113391;28;20048;-79
2023/04/29 00:45:14;;;;;;;1.85;1.00;;;19.80;99.90;;;;;;5113924;28;20020;-80
2023/04/29 00:47:40;;;;;;;2.25;1.10;;;19.80;99.90;;;;;;5113328;28;20076;-80
2023/04/29 00:50:07;;;;;;;1.10;1.00;;;19.70;99.90;;;;;;5113602;28;20024;-79
2023/04/29 00:52:33;;;;;;;1.20;0.90;;;19.70;99.90;;;;;;5113412;28;20487;-78
2023/04/29 00:55:00;;;;;;;2.55;1.08;;;19.70;99.90;;;;;;5113091;28;20416;-79
2023/04/29 00:57:29;;;;;;;2.70;1.08;;;19.70;99.90;;;;;;5113257;28;20037;-78
2023/04/29 00:59:58;;;;;;;1.80;0.90;;;19.60;99.90;;;;;;5113791;28;20035;-79
2023/04/29 01:02:25;;;;;;;2.33;0.98;;;19.60;99.90;;;;;;5113050;28;20019;-79
2023/04/29 01:04:51;;;;;;;1.58;1.10;;;19.60;99.90;;;;;;5113510;28;20027;-79
2023/04/29 01:07:30;;;;;;;2.40;1.08;;;19.60;99.90;;;;;;5113052;28;20080;-78
2023/04/29 01:10:08;;;;;;;1.25;0.90;;;19.60;99.90;;;;;;5113428;28;20043;-79
2023/04/29 01:12:43;;;;;;;1.88;1.00;;;19.50;99.90;;;;;;5112980;28;20500;-79
2023/04/29 01:15:22;;;;;;;1.00;0.90;;;19.60;99.90;;;;;;5113489;28;20049;-80
2023/04/29 01:17:59;;;;;;;1.67;1.10;;;19.60;99.90;;;;;;5112671;28;20024;-80
2023/04/29 01:20:25;;;;;;;1.40;1.10;;;19.60;99.90;;;;;;5113501;28;20036;-80
2023/04/29 01:22:51;;;;;;;2.28;1.02;;;19.60;99.90;;;;;;5112954;28;20062;-79
2023/04/29 01:25:17;;;;;;;1.85;1.10;;;19.60;99.90;;;;;;5112606;28;20391;-80
2023/04/29 01:28:10;;;;;;;1.15;1.00;;;19.60;99.90;;;;;;5112887;28;20115;-79
2023/04/29 01:30:55;;;;;;;3.00;1.08;;;19.60;99.90;;;;;;5112941;28;20035;-79
2023/04/29 01:33:42;;;;;;;1.88;0.80;;;19.70;99.90;;;;;;5112625;28;20023;-80
2023/04/29 01:36:39;;;;;;;2.10;1.00;;;19.60;99.90;;;;;;5112420;28;20084;-80
2023/04/29 01:39:13;;;;;;;1.58;1.25;;;19.70;99.90;;;;;;5049524;28;20044;-80
2023/04/29 01:42:10;;;;;;;1.45;1.00;;;19.60;99.90;;;;;;5049252;28;20108;-80
2023/04/29 01:44:37;;;;;;;1.25;1.00;;;19.50;99.90;;;;;;5048063;28;20041;-80
2023/04/29 01:47:04;;;;;;;0.98;0.95;;;19.50;99.90;;;;;;5049592;28;20084;-79
2023/04/29 01:49:34;;;;;;;1.00;0.90;;;19.40;99.90;;;;;;5049848;28;20037;-80
2023/04/29 01:51:59;;;;;;;1.48;0.95;;;19.40;99.90;;;;;;5049653;28;20112;-79
2023/04/29 01:54:25;;;;;;;3.15;1.00;;;19.30;99.90;;;;;;5048291;28;20128;-80
2023/04/29 01:56:51;;;;;;;2.40;1.00;;;19.30;99.90;;;;;;5048605;28;20108;-79
2023/04/29 01:59:16;;;;;;;0.82;0.82;;;19.30;99.90;;;;;;5049600;28;20457;-79
2023/04/29 02:01:42;;;;;;;2.05;1.00;;;19.30;99.90;;;;;;5049198;28;20079;-79
2023/04/29 02:04:08;;;;;;;2.08;1.00;;;19.20;99.90;;;;;;5049251;28;20032;-79
2023/04/29 02:06:33;;;;;;;1.88;1.00;;;19.30;99.90;;;;;;5049383;28;20033;-78
2023/04/29 02:08:59;;;;;;;0.90;0.82;;;19.30;99.90;;;;;;5049276;28;20114;-79
2023/04/29 02:11:25;;;;;;;0.88;0.80;;;19.30;99.90;;;;;;5048658;28;20064;-79
2023/04/29 02:13:51;;;;;;;1.27;0.90;;;19.30;99.90;;;;;;5048029;28;20032;-79
2023/04/29 02:16:17;;;;;;;1.70;0.93;;;19.20;99.90;;;;;;5093730;28;20492;-79
2023/04/29 02:18:43;;;;;;;2.25;1.00;;;19.30;99.90;;;;;;5112292;28;20028;-80
2023/04/29 02:21:09;;;;;;;1.23;0.90;;;19.30;99.90;;;;;;5111343;28;20441;-80
2023/04/29 02:23:35;;;;;;;2.47;1.10;;;19.30;99.90;;;;;;5112220;28;20030;-80
2023/04/29 02:26:02;;;;;;;1.88;1.00;;;19.30;99.90;;;;;;5111373;28;20023;-79
2023/04/29 02:28:28;;;;;;;2.33;1.08;;;19.30;99.90;;;;;;5111645;28;20031;-79
2023/04/29 02:30:54;;;;;;;2.45;1.10;;;19.20;99.90;;;;;;5111931;28;20487;-79
2023/04/29 02:33:19;;;;;;;2.15;1.08;;;19.20;99.90;;;;;;5112268;28;20403;-79
2023/04/29 02:35:45;;;;;;;2.10;0.90;;;19.30;99.90;;;;;;5111768;28;20047;-80
2023/04/29 02:38:11;;;;;;;1.08;0.93;;;19.30;99.90;;;;;;5111875;28;20026;-79
2023/04/29 02:40:44;;;;;;;1.88;1.00;;;19.20;99.90;;;;;;5111557;28;20424;-79
2023/04/29 02:43:10;;;;;;;1.30;1.20;;;19.10;99.90;;;;;;5111748;28;20065;-80
2023/04/29 02:45:37;;;;;;;1.05;0.90;;;19.10;99.90;;;;;;5112027;28;20020;-79
2023/04/29 02:48:03;;;;;;;1.02;0.90;;;19.10;99.90;;;;;;5112476;28;20496;-78
2023/04/29 02:50:29;;;;;;;2.53;1.17;;;19.10;99.90;;;;;;5115627;28;20016;-79
2023/04/29 02:52:55;;;;;;;4.50;1.10;;;19.10;99.90;;;;;;5115561;28;20072;-78
2023/04/29 02:55:20;;;;;;;1.90;1.10;;;19.20;99.90;;;;;;5116198;28;20080;-79
2023/04/29 02:57:46;;;;;;;3.35;1.50;;;19.10;99.90;;;;;;5115412;28;20392;-80
2023/04/29 03:00:12;;;;;;;3.90;1.25;;;19.10;99.90;;;;;;5116045;28;20023;-80
2023/04/29 03:02:38;;;;;;;2.58;1.30;;;19.10;99.90;;;;;;5115643;28;20028;-78
2023/04/29 03:05:04;;;;;;;1.50;1.20;;;19.10;99.90;;;;;;5115662;28;20047;-79
2023/04/29 03:07:30;;;;;;;1.92;1.05;;;19.00;99.90;;;;;;5114912;28;20028;-79
2023/04/29 03:09:57;;;;;;;1.70;1.20;;;19.00;99.90;;;;;;5115312;28;20043;-79
2023/04/29 03:12:22;;;;;;;2.08;1.00;;;19.00;99.90;;;;;;5115241;28;20062;-79
2023/04/29 03:14:48;;;;;;;3.63;1.08;;;18.90;99.90;;;;;;5115863;28;20036;-80
2023/04/29 03:17:14;;;;;;;2.97;1.23;;;18.90;99.90;;;;;;5115339;28;20022;-79
2023/04/29 03:19:40;;;;;;;2.40;1.10;;;18.90;99.90;;;;;;5115391;28;20069;-79
2023/04/29 03:22:08;;;;;;;1.10;1.00;;;19.00;99.90;;;;;;5114728;28;20050;-79
2023/04/29 03:24:34;;;;;;;1.60;1.30;;;19.10;99.90;;;;;;5115684;28;20388;-79
2023/04/29 03:27:00;;;;;;;1.02;0.90;;;19.00;99.90;;;;;;5115038;28;20019;-79
2023/04/29 03:29:26;;;;;;;1.23;0.93;;;19.00;99.90;;;;;;5115214;28;20107;-80
2023/04/29 03:31:53;;;;;;;2.25;1.08;;;19.00;99.90;;;;;;5114931;28;20024;-80
2023/04/29 03:34:19;;;;;;;1.00;0.90;;;19.00;99.90;;;;;;5115059;28;20063;-79
2023/04/29 03:36:44;;;;;;;1.90;0.90;;;18.90;99.90;;;;;;5114718;28;20051;-78
2023/04/29 03:39:13;;;;;;;2.17;0.90;;;19.00;99.90;;;;;;5114699;28;20511;-79
2023/04/29 03:41:39;;;;;;;1.70;0.90;;;19.00;99.90;;;;;;5115098;28;20023;-79
2023/04/29 03:44:04;;;;;;;3.53;1.10;;;19.00;99.90;;;;;;5115713;28;20030;-79
2023/04/29 03:46:30;;;;;;;2.10;1.15;;;19.00;99.90;;;;;;5114542;28;20495;-80
2023/04/29 03:48:56;;;;;;;1.98;1.10;;;18.90;99.90;;;;;;5114234;28;20020;-80
2023/04/29 03:51:23;;;;;;;2.47;1.20;;;18.90;99.90;;;;;;5114135;28;20391;-80
2023/04/29 03:53:49;;;;;;;1.02;0.90;;;18.90;99.90;;;;;;5114213;28;20024;-79
2023/04/29 03:56:15;;;;;;;1.10;1.00;;;18.90;99.90;;;;;;5114815;28;20108;-79
2023/04/29 03:58:41;;;;;;;2.90;1.30;;;18.90;99.90;;;;;;5115072;28;20153;-80
2023/04/29 04:01:06;;;;;;;1.75;1.00;;;18.90;99.90;;;;;;5113457;28;20028;-80
2023/04/29 04:03:32;;;;;;;2.50;1.00;;;18.90;99.90;;;;;;5096065;28;20028;-81
2023/04/29 04:05:58;;;;;;;3.50;0.98;;;18.90;99.90;;;;;;5114265;28;20024;-80
2023/04/29 04:08:24;;;;;;;2.58;1.05;;;18.90;99.90;;;;;;5096105;28;20377;-79
2023/04/29 04:10:49;;;;;;;1.17;1.00;;;18.90;99.90;;;;;;5114184;28;20020;-79
2023/04/29 04:13:15;;;;;;;1.88;1.10;;;18.90;99.90;;;;;;5114215;28;20164;-80
2023/04/29 04:15:41;;;;;;;1.00;0.90;;;18.80;99.90;;;;;;5114641;28;20024;-78
2023/04/29 04:18:07;;;;;;;1.65;1.00;;;18.90;99.90;;;;;;5113916;28;20031;-79
2023/04/29 04:20:35;;;;;;;1.45;1.00;;;18.80;99.90;;;;;;5114140;28;20492;-79
2023/04/29 04:23:01;;;;;;;2.72;1.30;;;18.80;99.90;;;;;;5114274;28;20035;-80
2023/04/29 04:25:27;;;;;;;1.75;1.08;;;18.70;99.90;;;;;;5114212;28;20015;-80
2023/04/29 04:27:53;;;;;;;1.70;1.25;;;18.60;99.90;;;;;;5114041;28;20035;-80
2023/04/29 04:30:19;;;;;;;2.45;1.00;;;18.60;99.90;;;;;;5113930;28;20503;-80
2023/04/29 04:32:45;;;;;;;1.63;1.10;;;18.50;99.90;;;;;;5113648;28;20062;-81
2023/04/29 04:35:11;;;;;;;1.65;1.20;;;18.60;99.90;;;;;;5113486;28;20084;-80
2023/04/29 04:37:37;;;;;;;2.60;1.20;;;18.50;99.90;;;;;;5113537;28;20035;-80
2023/04/29 04:40:03;;;;;;;3.03;1.10;;;18.50;99.90;;;;;;5114164;28;20032;-80
2023/04/29 04:42:29;;;;;;;1.20;1.10;;;18.50;99.90;;;;;;5114156;28;20094;-79
2023/04/29 04:44:56;;;;;;;1.30;1.20;;;18.50;99.90;;;;;;5114144;28;20585;-81
2023/04/29 04:47:21;;;;;;;2.63;1.00;;;18.50;99.90;;;;;;5114385;28;20028;-80
2023/04/29 04:49:48;;;;;;;1.35;1.25;;;18.50;99.90;;;;;;5113841;28;20377;-79
2023/04/29 04:52:14;;;;;;;1.65;1.10;;;18.50;99.90;;;;;;5113734;28;20400;-80
2023/04/29 04:54:40;;;;;;;2.05;1.20;;;18.50;99.90;;;;;;5113273;28;20032;-81
2023/04/29 04:57:06;;;;;;;1.20;1.10;;;18.50;99.90;;;;;;5113527;28;20031;-80
2023/04/29 04:59:32;;;;;;;1.95;1.40;;;18.40;99.90;;;;;;5113571;28;20028;-79
2023/04/29 05:01:58;;;;;;;1.90;1.27;;;18.40;99.90;;;;;;5113149;28;20031;-80
2023/04/29 05:04:23;;;;;;;1.42;1.20;;;18.40;99.90;;;;;;5113359;28;20400;-80
2023/04/29 05:06:49;;;;;;;3.00;1.30;;;18.40;99.90;;;;;;5113421;28;20065;-80
2023/04/29 05:09:15;;;;;;;2.38;1.38;;;18.30;99.90;;;;;;5112829;28;20033;-80
2023/04/29 05:11:41;;;;;;;2.30;1.40;;;18.30;99.90;;;;;;5112735;28;20043;-80
2023/04/29 05:14:07;;;;;;;1.92;1.40;;;18.30;99.90;;;;;;5094570;28;20036;-80
2023/04/29 05:16:32;;;;;;;1.58;1.40;;;18.30;99.90;;;;;;5112773;28;20095;-79
2023/04/29 05:18:58;;;;;;;2.15;1.52;;;18.30;99.90;;;;;;5112334;28;20029;-79
2023/04/29 05:21:24;;;;;;;1.35;1.25;;;18.30;99.90;;;;;;5112643;28;20047;-79
2023/04/29 05:23:50;;;;;;;1.60;1.50;;;18.30;99.90;;;;;;5113030;28;20060;-79
2023/04/29 05:26:15;;;;;;;3.08;1.52;;;18.30;99.90;;;;;;5112482;28;20106;-77
2023/04/29 05:28:41;;;;;;;7.88;2.22;;;18.30;99.90;;;;;;5112522;28;20023;-78
2023/04/29 05:31:07;;;;;;;8.65;2.40;;;18.30;99.90;;;;;;5112380;28;20035;-78
2023/04/29 05:33:32;;;;;;;8.05;2.60;;;18.40;99.90;;;;;;5112421;28;20035;-78
2023/04/29 05:35:58;;;;;;;7.45;3.08;;;18.30;99.90;;;;;;5093784;28;20123;-78
2023/04/29 05:38:27;;;;;;;9.38;3.08;;;18.30;99.90;;;;;;5112155;28;20506;-78
2023/04/29 05:40:57;;;;;;;10.07;2.97;;;18.30;99.90;;;;;;5112433;28;20508;-79
2023/04/29 05:43:23;;;;;;;6.18;2.85;;;18.20;99.90;;;;;;5094236;28;20039;-80
2023/04/29 05:45:49;;;;;;;7.68;2.75;;;18.20;99.90;;;;;;5093965;28;20373;-80
2023/04/29 05:48:14;;;;;;;8.35;3.13;;;18.20;99.90;;;;;;5111764;28;20085;-78
2023/04/29 05:50:40;;;;;;;6.45;2.95;;;18.20;99.90;;;;;;5112446;28;20023;-78
2023/04/29 05:53:06;;;;;;;7.10;2.85;;;18.30;99.90;;;;;;5111976;28;20119;-79
2023/04/29 05:55:32;;;;;;;6.72;2.83;;;18.30;99.90;;;;;;5112599;28;20024;-79
2023/04/29 05:57:58;;;;;;;8.88;3.05;;;18.30;99.90;;;;;;5112275;28;20031;-78
2023/04/29 06:00:23;;;;;;;5.90;2.50;;;18.30;99.90;;;;;;5112210;28;20456;-78
2023/04/29 06:02:49;;;;;;;6.45;2.53;;;18.30;99.90;;;;;;5112109;28;20522;-78
2023/04/29 06:05:15;;;;;;;7.50;2.60;;;18.20;99.90;;;;;;5112400;28;20020;-77
2023/04/29 06:07:41;;;;;;;9.20;2.47;;;18.20;99.90;;;;;;5112368;28;20092;-79
2023/04/29 06:10:08;;;;;;;7.70;2.70;;;18.20;99.90;;;;;;5112206;28;20430;-78
2023/04/29 06:12:34;;;;;;;8.68;2.63;;;18.20;99.90;;;;;;5111868;28;20134;-78
2023/04/29 06:14:59;;;;;;;6.18;2.60;;;18.20;99.90;;;;;;5112124;28;20122;-78
2023/04/29 06:17:28;;;;;;;5.35;2.63;;;18.20;99.90;;;;;;5111598;28;20484;-78
2023/04/29 06:19:54;;;;;;;7.93;2.63;;;18.20;99.90;;;;;;5111829;28;20507;-78
2023/04/29 06:22:20;;;;;;;6.15;2.75;;;18.20;99.90;;;;;;5111899;28;20026;-78
2023/04/29 06:24:46;;;;;;;6.95;2.90;;;18.20;99.90;;;;;;5112029;28;20396;-78
2023/04/29 06:27:11;;;;;;;6.90;2.47;;;18.20;99.90;;;;;;5112334;28;20106;-78
2023/04/29 06:29:38;;;;;;;6.28;2.70;;;18.20;99.90;;;;;;5112090;28;20098;-78
2023/04/29 06:32:03;;;;;;;10.95;2.90;;;18.20;99.90;;;;;;5111535;28;20492;-78
2023/04/29 06:34:29;;;;;;;5.22;2.70;;;18.20;99.90;;;;;;5112414;28;20126;-78
2023/04/29 06:36:55;;;;;;;9.05;2.58;;;18.20;99.90;;;;;;5111646;28;20083;-78
2023/04/29 06:39:21;;;;;;;8.52;2.80;;;18.20;99.90;;;;;;5111672;28;20024;-78
2023/04/29 06:41:46;;;;;;;7.82;2.90;;;18.20;99.90;;;;;;5111733;28;20468;-78
2023/04/29 06:44:12;;;;;;;5.78;3.00;;;18.20;99.90;;;;;;5111837;28;20030;-78
2023/04/29 06:46:38;;;;;;;7.95;3.00;;;18.30;99.90;;;;;;5111645;28;20032;-79
2023/04/29 06:49:05;;;;;;;8.07;2.90;;;18.30;99.90;;;;;;5111781;28;20034;-78
2023/04/29 06:51:31;;;;;;;7.03;2.83;;;18.20;99.90;;;;;;5112033;28;20028;-78
2023/04/29 06:53:56;;;;;;;3.88;2.50;;;18.30;99.90;;;;;;5111908;28;20366;-78
2023/04/29 06:56:22;;;;;;;3.33;2.20;;;18.30;99.90;;;;;;5111520;28;20063;-78
2023/04/29 06:58:48;;;;;;;5.70;2.53;;;18.40;99.90;;;;;;5112139;28;20031;-78
2023/04/29 07:01:14;;;;;;;5.22;2.30;;;18.40;99.90;;;;;;5111435;28;20028;-78
2023/04/29 07:03:39;;;;;;;4.15;2.58;;;18.40;99.90;;;;;;5111431;28;20035;-78
2023/04/29 07:06:05;;;;;;;3.63;2.17;;;18.40;99.90;;;;;;5111565;28;20336;-78
2023/04/29 07:08:31;;;;;;;6.65;2.15;;;18.40;99.90;;;;;;5111328;28;20024;-78
2023/04/29 07:10:57;;;;;;;3.83;2.20;;;18.50;99.90;;;;;;5112009;28;20031;-79
2023/04/29 07:13:23;;;;;;;6.85;1.90;;;18.50;99.90;;;;;;5111076;28;20412;-79
2023/04/29 07:15:49;;;;;;;4.70;2.10;;;18.40;99.90;;;;;;5111713;28;20028;-78
2023/04/29 07:18:15;;;;;;;4.97;2.03;;;18.50;99.90;;;;;;5111694;28;20035;-78
2023/04/29 07:20:42;;;;;;;4.03;2.17;;;18.40;99.90;;;;;;5111481;28;20024;-78
2023/04/29 07:23:08;;;;;;;3.13;2.05;;;18.40;99.90;;;;;;5111554;28;20036;-79
2023/04/29 07:25:33;;;;;;;3.40;1.83;;;18.40;99.90;;;;;;5111195;28;20031;-78
2023/04/29 07:27:59;;;;;;;2.97;2.10;;;18.40;99.90;;;;;;5111418;28;20028;-78
2023/04/29 07:30:25;;;;;;;3.67;2.10;;;18.40;99.90;;;;;;5110940;28;20149;-78
2023/04/29 07:32:50;;;;;;;2.45;2.05;;;18.50;99.90;;;;;;5111469;28;20043;-78
2023/04/29 07:35:16;;;;;;;3.47;2.08;;;18.50;99.90;;;;;;5112779;28;20028;-78
2023/04/29 07:37:42;;;;;;;3.60;2.10;;;18.50;99.90;;;;;;5114889;28;20080;-78
2023/04/29 07:40:09;;;;;;;3.97;2.08;;;18.60;99.90;;;;;;5115232;28;20038;-79
2023/04/29 07:42:34;;;;;;;2.65;1.77;;;18.60;99.90;;;;;;5114851;28;20077;-79
2023/04/29 07:45:00;;;;;;;4.60;2.13;;;18.60;99.90;;;;;;5096068;28;20027;-78
2023/04/29 07:47:26;;;;;;;4.20;2.00;;;18.60;99.90;;;;;;5114746;28;20038;-78
2023/04/29 07:49:51;;;;;;;4.30;1.90;;;18.60;99.90;;;;;;5114867;28;20480;-78
2023/04/29 07:52:17;;;;;;;3.53;2.15;;;18.60;99.90;;;;;;5114890;28;20062;-78
2023/04/29 07:54:43;;;;;;;4.55;2.10;;;18.70;99.90;;;;;;5114535;28;20415;-78
2023/04/29 07:57:09;;;;;;;2.83;1.80;;;18.70;99.90;;;;;;5114860;28;20023;-78
2023/04/29 07:59:34;;;;;;;3.88;1.88;;;18.70;99.90;;;;;;5114152;28;20036;-78
2023/04/29 08:02:00;;;;;;;4.30;2.30;;;18.70;99.90;;;;;;5115026;28;20023;-78
2023/04/29 08:04:26;;;;;;;5.50;2.20;;;18.70;99.90;;;;;;5114290;28;20541;-78
2023/04/29 08:06:52;;;;;;;3.10;2.00;;;18.80;99.90;;;;;;5114167;28;20034;-78
2023/04/29 08:09:17;;;;;;;2.70;1.90;;;18.80;99.90;;;;;;5114249;28;20027;-78
2023/04/29 08:11:44;;;;;;;5.18;2.00;;;18.90;99.90;;;;;;5114282;28;20075;-78
2023/04/29 08:14:10;;;;;;;2.10;1.90;;;18.90;99.90;;;;;;5113770;28;20480;-78
2023/04/29 08:16:36;;;;;;;2.67;1.67;;;18.90;99.90;;;;;;5114668;28;20032;-78
2023/04/29 08:19:01;;;;;;;2.78;1.83;;;18.90;99.90;;;;;;5114059;28;20047;-78
2023/04/29 08:21:27;;;;;;;4.30;2.30;;;18.90;99.90;;;;;;5114119;28;20036;-78
2023/04/29 08:23:54;;;;;;;2.95;1.92;;;18.90;99.90;;;;;;5114554;28;20110;-78
2023/04/29 08:26:21;;;;;;;2.88;1.90;;;18.90;99.90;;;;;;5114043;28;20032;-77
2023/04/29 08:28:47;;;;;;;2.60;1.90;;;19.00;99.90;;;;;;5114130;28;20484;-79
2023/04/29 08:31:17;;;;;;;2.42;1.77;;;18.90;99.90;;;;;;5114526;28;20039;-78
2023/04/29 08:33:42;;;;;;;2.03;1.80;;;19.00;99.90;;;;;;5114126;28;20524;-78
2023/04/29 08:36:08;;;;;;;10.63;3.60;;;19.10;99.90;;;;;;5114775;28;20028;-78
2023/04/29 08:38:34;;;;;;;6.20;2.70;;;19.10;99.90;;;;;;5113557;28;20376;-78
2023/04/29 08:41:00;;;;;;;5.38;2.17;;;19.10;99.90;;;;;;5114973;28;20023;-83
2023/04/29 08:43:26;;;;;;;3.30;2.10;;;19.10;99.90;;;;;;5115247;28;20034;-81
2023/04/29 08:45:52;;;;;;;3.42;1.90;;;19.30;99.90;;;;;;5113992;28;20450;-81
2023/04/29 08:48:18;;;;;;;2.10;1.90;;;19.30;99.90;;;;;;5113693;28;20024;-82
2023/04/29 08:50:44;;;;;;;3.47;2.00;;;19.40;99.90;;;;;;5113619;28;20515;-81
2023/04/29 08:53:13;;;;;;;1.77;1.58;;;19.40;99.90;;;;;;5113426;28;20094;-81
2023/04/29 08:55:43;;;;;;;3.97;1.70;;;19.50;99.90;;;;;;5113421;28;20055;-82
2023/04/29 08:58:09;;;;;;;2.65;1.90;;;19.60;99.90;;;;;;5113541;28;20019;-83
2023/04/29 09:00:36;;;;;;;3.20;1.85;;;19.70;99.90;;;;;;5113315;28;20058;-82
2023/04/29 09:03:29;;;;;;;13.48;3.00;;;19.80;99.90;;;;;;5113208;28;20028;-82
2023/04/29 09:05:57;;;;;;;4.32;1.92;;;20.00;99.90;;;;;;5104722;28;20118;-82
2023/04/29 09:08:24;;;;;;;4.40;1.90;;;19.90;99.90;;;;;;5112921;28;20028;-82
2023/04/29 09:10:51;;;;;;;2.53;1.80;;;19.90;99.90;;;;;;5112907;27;20500;-82
2023/04/29 09:13:24;;;;;;;4.70;2.00;;;19.80;99.90;;;;;;5113266;28;20063;-82
2023/04/29 09:15:49;;;;;;;2.20;1.50;;;19.90;99.90;;;;;;5112884;28;20088;-82
2023/04/29 09:18:40;;;;;;;2.97;1.80;;;19.80;99.90;;;;;;5113120;28;20027;-82
2023/04/29 09:21:19;;;;;;;2.40;1.90;;;19.90;99.90;;;;;;5113103;28;20020;-82
2023/04/29 09:23:57;;;;;;;1.70;1.60;;;19.90;99.90;;;;;;5112888;28;20034;-82
2023/04/29 09:26:23;;;;;;;3.35;1.95;;;19.90;99.90;;;;;;5112886;28;20027;-82
2023/04/29 09:29:10;;;;;;;5.68;1.73;;;20.00;99.90;;;;;;5113046;28;20023;-83
2023/04/29 09:31:38;;;;;;;6.18;1.98;;;19.90;99.90;;;;;;5112965;28;20026;-83
2023/04/29 09:34:03;;;;;;;5.60;2.00;;;20.00;99.90;;;;;;5112869;28;20039;-82
2023/04/29 09:36:38;;;;;;;6.90;2.30;;;20.00;99.90;;;;;;5112897;28;20073;-83
2023/04/29 09:39:10;;;;;;;5.72;2.33;;;19.90;99.90;;;;;;5112779;28;20051;-83
2023/04/29 09:41:56;;;;;;;3.17;2.00;;;20.00;99.90;;;;;;5113515;28;20026;-83
2023/04/29 09:44:24;;;;;;;2.05;1.70;;;20.00;99.90;;;;;;5111866;28;20038;-83
2023/04/29 09:46:56;;;;;;;3.15;1.65;;;20.00;99.90;;;;;;5112581;28;20155;-83
2023/04/29 09:49:25;;;;;;;3.97;1.70;;;20.00;99.90;;;;;;5112651;28;20030;-83
2023/04/29 09:51:59;;;;;;;2.88;1.70;;;19.90;99.90;;;;;;5112951;28;20545;-83
2023/04/29 09:54:28;;;;;;;2.20;1.73;;;19.90;99.90;;;;;;5111823;28;20124;-82
2023/04/29 09:56:56;;;;;;;4.13;1.88;;;19.90;99.90;;;;;;5112719;28;20020;-82
2023/04/29 09:59:22;;;;;;;3.97;1.80;;;19.90;99.90;;;;;;5111857;28;20027;-83
2023/04/29 10:01:53;;;;;;;5.70;2.92;;;19.80;99.90;;;;;;5112568;28;20045;-83
2023/04/29 10:04:20;;;;;;;6.47;2.22;;;19.80;99.90;;;;;;5112405;28;20102;-82
2023/04/29 10:06:49;;;;;;;3.95;1.77;;;19.70;99.90;;;;;;5112768;28;20020;-83
2023/04/29 10:09:16;;;;;;;5.90;1.90;;;19.70;99.90;;;;;;5112633;28;20027;-82
2023/04/29 10:11:47;;;;;;;3.85;1.80;;;19.70;99.90;;;;;;5112274;28;20040;-83
2023/04/29 10:14:16;;;;;;;2.45;1.58;;;19.70;99.90;;;;;;5111971;28;20043;-83
2023/04/29 10:16:50;;;;;;;4.00;1.77;;;19.70;99.90;;;;;;5112482;28;20020;-82
2023/04/29 10:19:36;;;;;;;3.53;1.70;;;19.80;99.90;;;;;;5113320;28;20488;-83
2023/04/29 10:22:11;;;;;;;2.97;1.63;;;19.70;99.90;;;;;;5112318;28;20361;-83
2023/04/29 10:24:37;;;;;;;3.55;1.58;;;19.70;99.90;;;;;;5111625;28;20020;-83
2023/04/29 10:27:11;;;;;;;2.38;1.83;;;19.70;99.90;;;;;;5112101;28;20446;-83
2023/04/29 10:29:38;;;;;;;2.47;1.80;;;19.60;99.90;;;;;;5111785;28;20446;-83
2023/04/29 10:32:08;;;;;;;3.55;1.80;;;19.70;99.90;;;;;;5111653;28;20499;-83
2023/04/29 10:34:37;;;;;;;2.10;1.70;;;19.60;99.90;;;;;;5111865;28;20039;-83
2023/04/29 10:37:04;;;;;;;3.45;1.80;;;19.60;99.90;;;;;;5111902;28;20106;-83
2023/04/29 10:39:54;;;;;;;2.83;2.08;;;19.60;99.90;;;;;;5112317;28;20107;-83
2023/04/29 10:42:42;;;;;;;3.78;1.88;;;19.60;99.90;;;;;;5112114;28;20075;-83
2023/04/29 10:45:20;;;;;;;2.05;1.50;;;19.60;99.90;;;;;;5111751;28;20032;-83
2023/04/29 10:48:01;;;;;;;4.10;1.77;;;19.60;99.90;;;;;;5112085;28;20027;-83
2023/04/29 10:50:47;;;;;;;2.60;1.88;;;19.60;99.90;;;;;;5112240;28;20376;-83
2023/04/29 10:53:15;;;;;;;3.15;1.90;;;19.60;99.90;;;;;;5082303;28;20449;-83
2023/04/29 10:55:41;;;;;;;2.95;1.88;;;19.50;99.90;;;;;;5112284;28;20023;-82
2023/04/29 10:58:41;;;;;;;4.13;1.80;;;19.50;99.90;;;;;;5111564;28;20027;-82
2023/04/29 11:01:10;;;;;;;3.08;1.70;;;19.50;99.90;;;;;;5111859;28;20074;-82
2023/04/29 11:03:58;;;;;;;3.22;1.98;;;19.40;99.90;;;;;;5111505;28;20088;-82
2023/04/29 11:06:51;;;;;;;4.13;2.15;;;19.50;99.90;;;;;;5093258;28;20100;-82
2023/04/29 11:09:19;;;;;;;2.83;2.08;;;19.50;99.90;;;;;;5113744;28;20476;-81
2023/04/29 11:11:47;;;;;;;2.60;2.00;;;19.50;99.90;;;;;;5115411;28;20051;-82
2023/04/29 11:14:14;;;;;;;2.38;1.70;;;19.50;99.90;;;;;;5115558;28;20412;-81
2023/04/29 11:16:48;;;;;;;3.63;2.10;;;19.50;99.90;;;;;;5115162;28;20476;-82
2023/04/29 11:19:15;;;;;;;4.20;2.00;;;19.50;99.90;;;;;;5115175;28;20027;-82
2023/04/29 11:21:41;;;;;;;2.50;1.85;;;19.60;99.90;;;;;;5114892;28;20237;-82
2023/04/29 11:24:07;;;;;;;5.05;3.00;;;19.50;99.90;;;;;;5116259;28;20048;-82
2023/04/29 11:26:36;;;;;;;7.55;5.40;;;19.40;99.90;;;;;;5115485;28;20050;-82
2023/04/29 11:29:01;;;;;;;6.03;3.60;;;19.50;99.90;;;;;;5097683;28;20047;-82
2023/04/29 11:31:31;;;;;;;4.40;3.17;;;19.50;99.90;;;;;;5116440;28;20043;-81
2023/04/29 11:33:58;;;;;;;3.67;2.53;;;19.40;99.90;;;;;;5115754;28;20451;-81
2023/04/29 11:36:24;;;;;;;3.75;2.33;;;19.30;99.90;;;;;;5114844;28;20117;-82
2023/04/29 11:38:50;;;;;;;4.45;2.00;;;19.30;99.90;;;;;;5115447;28;20446;-83
2023/04/29 11:41:16;;;;;;;3.70;2.58;;;19.10;99.90;;;;;;5114588;28;20032;-82
2023/04/29 11:43:45;;;;;;;4.93;2.90;;;19.00;99.90;;;;;;5115299;28;20030;-82
2023/04/29 11:46:15;;;;;;;4.75;1.90;;;19.00;99.90;;;;;;5114856;28;20027;-82
2023/04/29 11:48:47;;;;;;;2.72;1.40;;;18.90;99.90;;;;;;5114507;28;20058;-82
2023/04/29 11:51:14;;;;;;;1.42;1.20;;;18.80;99.90;;;;;;5114200;28;20024;-82
2023/04/29 11:53:40;;;;;;;4.05;1.90;;;18.60;99.90;;;;;;5114567;28;20043;-82
2023/04/29 11:56:08;;;;;;;2.17;1.38;;;18.60;99.90;;;;;;5113838;28;20031;-82
2023/04/29 11:58:34;;;;;;;2.70;1.70;;;18.70;99.90;;;;;;5114749;28;20027;-82
2023/04/29 12:01:01;;;;;;;4.15;2.88;;;18.60;99.90;;;;;;5114732;28;20028;-83
2023/04/29 12:03:27;;;;;;;4.68;3.28;;;18.60;99.90;;;;;;5114260;28;20022;-82
2023/04/29 12:05:54;;;;;;;4.82;4.10;;;18.50;99.90;;;;;;5114281;28;20035;-82
2023/04/29 12:08:23;;;;;;;3.70;1.60;;;18.50;99.90;;;;;;5114396;28;20480;-80
2023/04/29 12:10:50;;;;;;;4.50;2.53;;;18.50;99.90;;;;;;5114493;28;20039;-79
2023/04/29 12:13:17;;;;;;;4.70;2.20;;;18.50;99.90;;;;;;5114461;28;20048;-78
2023/04/29 12:15:47;;;;;;;10.93;4.10;;;18.40;99.90;;;;;;5114250;28;20048;-77
2023/04/29 12:18:13;;;;;;;6.47;3.22;;;18.30;99.90;;;;;;5113953;28;20030;-78
2023/04/29 12:20:40;;;;;;;5.50;1.90;;;18.30;99.90;;;;;;5113762;28;20528;-78
2023/04/29 12:23:17;;;;;;;9.05;4.20;;;18.20;99.90;;;;;;5114940;28;20347;-78
2023/04/29 12:26:03;;;;;;;6.43;3.67;;;18.20;99.90;;;;;;5114263;28;20061;-77
2023/04/29 12:28:29;;;;;;;5.15;2.25;;;18.10;99.90;;;;;;5114519;28;20043;-76
2023/04/29 12:30:57;;;;;;;4.10;1.40;;;18.10;99.90;;;;;;5114108;28;20032;-77
2023/04/29 12:33:28;;;;;;;6.28;1.88;;;18.00;99.90;;;;;;5095637;28;20400;-76
2023/04/29 12:35:56;;;;;;;5.57;1.55;;;17.90;99.90;;;;;;5114289;28;20032;-78
2023/04/29 12:38:25;;;;;;;2.70;1.50;;;17.80;99.90;;;;;;5114621;28;20485;-79
2023/04/29 12:40:51;;;;;;;4.63;2.90;;;17.80;99.90;;;;;;5113544;28;20103;-81
2023/04/29 12:43:17;;;;;;;2.05;1.60;;;18.00;99.90;;;;;;5113794;28;20102;-79
2023/04/29 12:45:43;;;;;;;3.85;1.55;;;17.90;99.90;;;;;;5113776;28;20447;-78
2023/04/29 12:48:11;;;;;;;2.83;1.60;;;18.00;99.90;;;;;;5094937;28;20110;-79
2023/04/29 12:50:38;;;;;;;3.85;1.63;;;18.00;99.90;;;;;;5113598;28;20024;-79